Omskiy-107 — UBWE3 — position and weather

sailwx.info

Track history (hours):
 
Tides and Currents Weather Stations Pressure Air Temp Water Temp Dewpoint Dewpoint Depression Visibility Wind Speed Wind Dir Waves Ship Positions

Omskiy-107

Last reported at 2017-Jul-13 08:34 UTC. Time now 2017-Aug-20 22:48 UTC.
Position N 45°30' E 036°45'.
Warning: this ship's position is 38 days out of date.

Length 108 m; draft 3.3 m.

Type: Cargo ship. MMSI: 273343220.

Date/timePositionNaut miles runAvg speedWind from/ knotsBaromVisibWave heightAir tempDewpointWater temp
2017-Jul-13 08:34N 45°30' E 036°45'1 7.7
2017-Jul-13 08:30N 45°30' E 036°45'4 7.5
2017-Jul-13 08:00N 45°26' E 036°42'4 7.8
2017-Jul-13 07:30N 45°23' E 036°41'4 7.9
2017-Jul-13 07:00N 45°20' E 036°36'5 8.7
2017-Jul-13 06:26N 45°18' E 036°29'4 7.8
2017-Jul-13 05:52N 45°14' E 036°29'2 5.9
2017-Jul-13 05:30N 45°12' E 036°30'1 0.7
2017-Jul-13 03:41N 45°11' E 036°31'1 3.7
2017-Jul-13 03:24N 45°10' E 036°31'3 8.1
2017-Jul-13 03:00N 45°07' E 036°30'4 8.3
2017-Jul-13 02:28N 45°02' E 036°31'4 8.5
2017-Jul-13 01:56N 44°58' E 036°31'4 8.5
2017-Jul-13 01:29N 44°54' E 036°31'  
2017-Jul-10 19:23N 40°59' E 028°60'3 0.1
2017-Jul-10 00:42N 40°57' E 028°57'5 7.0
2017-Jul-09 23:59N 40°53' E 029°00'4 7.9
2017-Jul-09 23:26N 40°50' E 029°04'4 8.3
2017-Jul-09 22:59N 40°48' E 029°08'4 8.6
2017-Jul-09 22:30N 40°46' E 029°14'4 8.8
2017-Jul-09 22:00N 40°45' E 029°19'  
2017-Jul-04 20:50N 40°07' E 025°18'18 6.4
2017-Jul-04 18:05N 40°14' E 024°57'1 6.7
2017-Jul-04 17:56N 40°14' E 024°55'3 6.7
2017-Jul-04 17:30N 40°15' E 024°52'4 6.9
2017-Jul-04 16:59N 40°17' E 024°47'4 6.8
2017-Jul-04 16:28N 40°18' E 024°43'3 6.9
2017-Jul-04 16:00N 40°19' E 024°39'4 7.1
2017-Jul-04 15:28N 40°20' E 024°35'4 7.3
2017-Jul-04 14:57N 40°22' E 024°30'10 7.5
2017-Jul-04 13:34N 40°31' E 024°25'2 8.0
2017-Jul-04 13:16N 40°34' E 024°25'2 7.8
2017-Jul-04 13:00N 40°36' E 024°25'4 7.8
2017-Jul-04 12:30N 40°40' E 024°25'4 7.9
2017-Jul-04 12:00N 40°44' E 024°25'4 8.1
2017-Jul-04 11:30N 40°48' E 024°26'4 8.3
2017-Jul-04 11:00N 40°52' E 024°28'4 7.7
2017-Jul-04 10:30N 40°55' E 024°29'1 2.8
2017-Jul-04 10:01N 40°57' E 024°28'0 0.0
2017-Jul-04 09:31N 40°57' E 024°28'0 0.0
2017-Jul-04 09:01N 40°57' E 024°28'0 0.0
2017-Jul-04 08:28N 40°57' E 024°28'0 0.0
2017-Jul-04 08:01N 40°57' E 024°28'0 0.0
2017-Jul-04 07:31N 40°57' E 024°28'0 0.0
2017-Jul-04 06:58N 40°57' E 024°28'0 0.0
2017-Jul-04 06:31N 40°57' E 024°28'0 0.0
2017-Jul-04 05:58N 40°57' E 024°28'0 0.0
2017-Jul-04 05:28N 40°57' E 024°28'0 0.0
2017-Jul-04 05:01N 40°57' E 024°28'0 0.0
2017-Jul-04 04:28N 40°57' E 024°28'0 0.0
2017-Jul-04 04:00N 40°57' E 024°28'0 0.0
2017-Jul-04 03:31N 40°57' E 024°28'0 0.0
2017-Jul-04 03:01N 40°57' E 024°28'0 0.0
2017-Jul-04 02:22N 40°57' E 024°28'0 0.0
2017-Jul-04 01:58N 40°57' E 024°28'0 0.0
2017-Jul-04 01:28N 40°57' E 024°28'0 0.0
2017-Jul-04 00:58N 40°57' E 024°28'0 0.0
2017-Jul-04 00:28N 40°57' E 024°28'0 0.0
2017-Jul-03 23:58N 40°57' E 024°28'0 0.0
2017-Jul-03 23:28N 40°57' E 024°28'0 0.0
2017-Jul-03 23:01N 40°57' E 024°28'0 0.0
2017-Jul-03 22:31N 40°57' E 024°28'0 0.0
2017-Jul-03 21:58N 40°57' E 024°28'0 0.0
2017-Jul-03 21:31N 40°57' E 024°28'0 0.0
2017-Jul-03 20:58N 40°57' E 024°28'0 0.0
2017-Jul-03 20:31N 40°57' E 024°28'0 0.0
2017-Jul-03 19:58N 40°57' E 024°28'0 0.0
2017-Jul-03 19:28N 40°57' E 024°28'0 0.0
2017-Jul-03 19:01N 40°57' E 024°28'0 0.0
2017-Jul-03 18:28N 40°57' E 024°28'0 0.0
2017-Jul-03 17:58N 40°57' E 024°28'0 0.0
2017-Jul-03 17:28N 40°57' E 024°28'0 0.0
2017-Jul-03 16:58N 40°57' E 024°28'0 0.0
2017-Jul-03 16:28N 40°57' E 024°28'0 0.0
2017-Jul-03 15:57N 40°57' E 024°28'0 0.0
2017-Jul-03 15:31N 40°57' E 024°28'0 0.0
2017-Jul-03 15:01N 40°57' E 024°28'0 0.0
2017-Jul-03 14:01N 40°57' E 024°28'0 0.0
2017-Jul-03 13:28N 40°57' E 024°28'0 0.0
2017-Jul-03 13:01N 40°57' E 024°28'0 0.0
2017-Jul-03 12:28N 40°57' E 024°28'0 0.0
2017-Jul-03 12:01N 40°57' E 024°28'0 0.0
2017-Jul-03 11:28N 40°57' E 024°28'0 0.0
2017-Jul-03 10:49N 40°57' E 024°28'0 0.0
2017-Jul-03 10:31N 40°57' E 024°28'0 0.0
2017-Jul-03 09:58N 40°57' E 024°28'0 0.0
2017-Jul-03 09:31N 40°57' E 024°28'0 0.0
2017-Jul-03 09:01N 40°57' E 024°28'  
Track history (hours):
 
Tides and Currents Weather Stations Pressure Air Temp Water Temp Dewpoint Dewpoint Depression Visibility Wind Speed Wind Dir Waves Ship Positions

Omskiy-107

Last reported at 2017-Jul-13 08:34 UTC. Time now 2017-Aug-20 22:48 UTC.
Position N 45°30' E 036°45'.
Warning: this ship's position is 38 days out of date.

Length 108 m; draft 3.3 m.

Type: Cargo ship. MMSI: 273343220.

Date/timePositionNaut miles runAvg speedWind from/ knotsBaromVisibWave heightAir tempDewpointWater temp
2017-Jul-13 08:34N 45°30' E 036°45'1 7.7
2017-Jul-13 08:30N 45°30' E 036°45'4 7.5
2017-Jul-13 08:00N 45°26' E 036°42'4 7.8
2017-Jul-13 07:30N 45°23' E 036°41'4 7.9
2017-Jul-13 07:00N 45°20' E 036°36'5 8.7
2017-Jul-13 06:26N 45°18' E 036°29'4 7.8
2017-Jul-13 05:52N 45°14' E 036°29'2 5.9
2017-Jul-13 05:30N 45°12' E 036°30'1 0.7
2017-Jul-13 03:41N 45°11' E 036°31'1 3.7
2017-Jul-13 03:24N 45°10' E 036°31'3 8.1
2017-Jul-13 03:00N 45°07' E 036°30'4 8.3
2017-Jul-13 02:28N 45°02' E 036°31'4 8.5
2017-Jul-13 01:56N 44°58' E 036°31'4 8.5
2017-Jul-13 01:29N 44°54' E 036°31'  
2017-Jul-10 19:23N 40°59' E 028°60'3 0.1
2017-Jul-10 00:42N 40°57' E 028°57'5 7.0
2017-Jul-09 23:59N 40°53' E 029°00'4 7.9
2017-Jul-09 23:26N 40°50' E 029°04'4 8.3
2017-Jul-09 22:59N 40°48' E 029°08'4 8.6
2017-Jul-09 22:30N 40°46' E 029°14'4 8.8
2017-Jul-09 22:00N 40°45' E 029°19'  
2017-Jul-04 20:50N 40°07' E 025°18'18 6.4
2017-Jul-04 18:05N 40°14' E 024°57'1 6.7
2017-Jul-04 17:56N 40°14' E 024°55'3 6.7
2017-Jul-04 17:30N 40°15' E 024°52'4 6.9
2017-Jul-04 16:59N 40°17' E 024°47'4 6.8
2017-Jul-04 16:28N 40°18' E 024°43'3 6.9
2017-Jul-04 16:00N 40°19' E 024°39'4 7.1
2017-Jul-04 15:28N 40°20' E 024°35'4 7.3
2017-Jul-04 14:57N 40°22' E 024°30'10 7.5
2017-Jul-04 13:34N 40°31' E 024°25'2 8.0
2017-Jul-04 13:16N 40°34' E 024°25'2 7.8
2017-Jul-04 13:00N 40°36' E 024°25'4 7.8
2017-Jul-04 12:30N 40°40' E 024°25'4 7.9
2017-Jul-04 12:00N 40°44' E 024°25'4 8.1
2017-Jul-04 11:30N 40°48' E 024°26'4 8.3
2017-Jul-04 11:00N 40°52' E 024°28'4 7.7
2017-Jul-04 10:30N 40°55' E 024°29'1 2.8
2017-Jul-04 10:01N 40°57' E 024°28'0 0.0
2017-Jul-04 09:31N 40°57' E 024°28'0 0.0
2017-Jul-04 09:01N 40°57' E 024°28'0 0.0
2017-Jul-04 08:28N 40°57' E 024°28'0 0.0
2017-Jul-04 08:01N 40°57' E 024°28'0 0.0
2017-Jul-04 07:31N 40°57' E 024°28'0 0.0
2017-Jul-04 06:58N 40°57' E 024°28'0 0.0
2017-Jul-04 06:31N 40°57' E 024°28'0 0.0
2017-Jul-04 05:58N 40°57' E 024°28'0 0.0
2017-Jul-04 05:28N 40°57' E 024°28'0 0.0
2017-Jul-04 05:01N 40°57' E 024°28'0 0.0
2017-Jul-04 04:28N 40°57' E 024°28'0 0.0
2017-Jul-04 04:00N 40°57' E 024°28'0 0.0
2017-Jul-04 03:31N 40°57' E 024°28'0 0.0
2017-Jul-04 03:01N 40°57' E 024°28'0 0.0
2017-Jul-04 02:22N 40°57' E 024°28'0 0.0
2017-Jul-04 01:58N 40°57' E 024°28'0 0.0
2017-Jul-04 01:28N 40°57' E 024°28'0 0.0
2017-Jul-04 00:58N 40°57' E 024°28'0 0.0
2017-Jul-04 00:28N 40°57' E 024°28'0 0.0
2017-Jul-03 23:58N 40°57' E 024°28'0 0.0
2017-Jul-03 23:28N 40°57' E 024°28'0 0.0
2017-Jul-03 23:01N 40°57' E 024°28'0 0.0
2017-Jul-03 22:31N 40°57' E 024°28'0 0.0
2017-Jul-03 21:58N 40°57' E 024°28'0 0.0
2017-Jul-03 21:31N 40°57' E 024°28'0 0.0
2017-Jul-03 20:58N 40°57' E 024°28'0 0.0
2017-Jul-03 20:31N 40°57' E 024°28'0 0.0
2017-Jul-03 19:58N 40°57' E 024°28'0 0.0
2017-Jul-03 19:28N 40°57' E 024°28'0 0.0
2017-Jul-03 19:01N 40°57' E 024°28'0 0.0
2017-Jul-03 18:28N 40°57' E 024°28'0 0.0
2017-Jul-03 17:58N 40°57' E 024°28'0 0.0
2017-Jul-03 17:28N 40°57' E 024°28'0 0.0
2017-Jul-03 16:58N 40°57' E 024°28'0 0.0
2017-Jul-03 16:28N 40°57' E 024°28'0 0.0
2017-Jul-03 15:57N 40°57' E 024°28'0 0.0
2017-Jul-03 15:31N 40°57' E 024°28'0 0.0
2017-Jul-03 15:01N 40°57' E 024°28'0 0.0
2017-Jul-03 14:01N 40°57' E 024°28'0 0.0
2017-Jul-03 13:28N 40°57' E 024°28'0 0.0
2017-Jul-03 13:01N 40°57' E 024°28'0 0.0
2017-Jul-03 12:28N 40°57' E 024°28'0 0.0
2017-Jul-03 12:01N 40°57' E 024°28'0 0.0
2017-Jul-03 11:28N 40°57' E 024°28'0 0.0
2017-Jul-03 10:49N 40°57' E 024°28'0 0.0
2017-Jul-03 10:31N 40°57' E 024°28'0 0.0
2017-Jul-03 09:58N 40°57' E 024°28'0 0.0
2017-Jul-03 09:31N 40°57' E 024°28'0 0.0
2017-Jul-03 09:01N 40°57' E 024°28'  

Dump ship's entire track history